Time;durP1;ratioP1;P1;durP2;ratioP2;P2;SDS_P1;SDS_P2;PMS_P1;PMS_P2;Temp;Humidity;BMP_temperature;BMP_pressure;BME280_temperature;BME280_humidity;BME280_pressure;Samples;Min_cycle;Max_cycle;Signal;HPM_P1;HPM_P2
2022/01/25 00:31:39;;;;;;;47.47;20.15;;;2.60;81.30;;;;;;4993754;28;20030;-67
2022/01/25 00:34:06;;;;;;;41.05;20.52;;;2.50;81.20;;;;;;4993132;28;20099;-67
2022/01/25 00:36:33;;;;;;;43.70;20.75;;;2.60;81.20;;;;;;4997650;28;20038;-67
2022/01/25 00:38:59;;;;;;;44.13;21.30;;;2.50;81.10;;;;;;4992622;28;20447;-66
2022/01/25 00:41:25;;;;;;;46.38;20.38;;;2.50;81.20;;;;;;4994807;28;20030;-67
2022/01/25 00:43:52;;;;;;;57.25;21.88;;;2.50;81.30;;;;;;4999349;28;20042;-67
2022/01/25 00:46:20;;;;;;;42.55;20.33;;;2.50;81.40;;;;;;4994797;28;20040;-67
2022/01/25 00:48:49;;;;;;;45.70;20.92;;;2.40;81.50;;;;;;4993774;28;20037;-67
2022/01/25 00:56:39;;;;;;;45.10;20.92;;;2.40;81.60;;;;;;4991247;28;20725;-67
2022/01/25 00:59:07;;;;;;;42.03;20.08;;;2.40;81.60;;;;;;4996274;28;20137;-67
2022/01/25 01:01:34;;;;;;;48.25;20.83;;;2.40;81.50;;;;;;4990675;28;20038;-67
2022/01/25 01:04:00;;;;;;;48.92;20.48;;;2.40;81.50;;;;;;4992023;28;20030;-66
2022/01/25 01:06:26;;;;;;;60.83;21.30;;;2.40;81.50;;;;;;4992310;28;20077;-67
2022/01/25 01:08:52;;;;;;;44.95;21.00;;;2.40;81.60;;;;;;4992573;28;20628;-67
2022/01/25 01:11:26;;;;;;;51.88;21.05;;;2.40;81.60;;;;;;4995001;28;20096;-67
2022/01/25 01:43:26;;;;;;;41.28;20.52;;;2.20;81.60;;;;;;4992101;28;20084;-67
2022/01/25 01:48:29;;;;;;;56.25;20.90;;;2.20;81.80;;;;;;4992938;28;20034;-67
2022/01/25 01:51:01;;;;;;;37.85;18.65;;;2.20;81.80;;;;;;4993356;28;20036;-66
2022/01/25 01:53:27;;;;;;;38.13;19.25;;;2.20;81.60;;;;;;4993678;28;20116;-66
2022/01/25 01:55:53;;;;;;;33.83;18.63;;;2.20;81.50;;;;;;4995922;28;20078;-67
2022/01/25 01:58:18;;;;;;;34.00;18.52;;;2.20;81.40;;;;;;4995696;28;20033;-67
2022/01/25 02:00:47;;;;;;;32.92;17.35;;;2.20;81.40;;;;;;4992685;28;20790;-67
2022/01/25 02:03:13;;;;;;;31.00;16.75;;;2.20;81.30;;;;;;4989905;28;20049;-67
2022/01/25 02:05:39;;;;;;;34.70;18.48;;;2.10;81.10;;;;;;4994422;28;20085;-67
2022/01/25 02:08:05;;;;;;;35.70;18.75;;;2.10;81.00;;;;;;4987769;28;22441;-67
2022/01/25 02:10:31;;;;;;;34.53;18.10;;;2.10;80.90;;;;;;4991926;28;20128;-67
2022/01/25 02:12:57;;;;;;;35.83;17.30;;;2.10;80.90;;;;;;4990075;28;20042;-67
2022/01/25 02:15:28;;;;;;;42.88;18.17;;;2.10;81.00;;;;;;4990026;28;20407;-67
2022/01/25 02:22:25;;;;;;;40.88;19.40;;;2.00;80.90;;;;;;4991376;28;20064;-66
2022/01/25 02:23:27;;;;;;;41.30;18.55;;;2.00;80.90;;;;;;4990165;28;20050;-67
2022/01/25 02:25:56;;;;;;;37.10;18.42;;;2.00;80.90;;;;;;4994429;28;20030;-66
2022/01/25 02:28:23;;;;;;;36.58;19.10;;;1.90;81.00;;;;;;4988274;28;20117;-67
2022/01/25 02:30:50;;;;;;;37.28;19.40;;;1.90;81.10;;;;;;4988948;28;20053;-67
2022/01/25 02:33:15;;;;;;;39.20;19.40;;;1.90;81.20;;;;;;4993841;28;20382;-67
2022/01/25 02:35:42;;;;;;;38.17;19.67;;;1.90;81.30;;;;;;4995489;28;20522;-66
2022/01/25 02:38:07;;;;;;;36.15;18.58;;;1.80;81.40;;;;;;4986957;28;20046;-67
2022/01/25 02:40:35;;;;;;;37.33;19.55;;;1.80;81.40;;;;;;4993587;28;20038;-68
2022/01/25 02:43:00;;;;;;;44.03;18.80;;;1.80;81.60;;;;;;4992231;28;20030;-67
2022/01/25 02:45:32;;;;;;;37.53;19.17;;;1.80;81.60;;;;;;4991332;28;20505;-67
2022/01/25 02:50:43;;;;;;;35.55;18.33;;;1.80;82.30;;;;;;4990424;28;20072;-67
2022/01/25 02:53:08;;;;;;;32.90;17.05;;;1.90;81.40;;;;;;4995869;28;20065;-67
2022/01/25 02:55:34;;;;;;;36.53;19.13;;;1.80;81.40;;;;;;4993816;28;20030;-66
2022/01/25 02:58:00;;;;;;;32.80;17.92;;;1.80;81.40;;;;;;4986936;28;20378;-67
2022/01/25 03:00:26;;;;;;;33.03;17.80;;;1.80;81.30;;;;;;4991478;28;20100;-67
2022/01/25 03:02:52;;;;;;;33.08;17.60;;;1.80;81.30;;;;;;4991954;28;20038;-67
2022/01/25 03:05:17;;;;;;;32.95;17.80;;;1.80;81.30;;;;;;4992965;28;20049;-67
2022/01/25 03:07:44;;;;;;;35.85;18.48;;;1.80;81.20;;;;;;4991188;28;20086;-67
2022/01/25 03:10:11;;;;;;;37.17;19.30;;;1.70;81.10;;;;;;5003644;28;20511;-68
2022/01/25 03:12:44;;;;;;;33.70;17.60;;;1.80;81.10;;;;;;4992725;28;20043;-67
2022/01/25 03:17:47;;;;;;;32.92;17.83;;;1.80;81.30;;;;;;4992853;28;20034;-67
2022/01/25 03:20:20;;;;;;;33.10;17.83;;;1.80;81.40;;;;;;4990931;28;20072;-66
2022/01/25 03:25:25;;;;;;;33.47;18.08;;;1.80;81.20;;;;;;4994222;28;20046;-67
2022/01/25 03:27:51;;;;;;;36.38;18.70;;;1.80;81.20;;;;;;4992492;28;20042;-67
2022/01/25 03:30:16;;;;;;;36.28;18.05;;;1.70;81.00;;;;;;4991655;28;20084;-67
2022/01/25 03:32:42;;;;;;;33.58;18.02;;;1.80;80.90;;;;;;4988360;28;20041;-67
2022/01/25 03:35:08;;;;;;;33.25;17.60;;;1.80;81.00;;;;;;4986893;28;20041;-67
2022/01/25 03:37:33;;;;;;;31.23;16.83;;;1.80;81.10;;;;;;4996307;28;20482;-67
2022/01/25 03:39:59;;;;;;;33.25;17.90;;;1.70;80.90;;;;;;4989262;28;20089;-66
2022/01/25 03:42:25;;;;;;;34.22;17.38;;;1.80;81.00;;;;;;4993568;28;20035;-68
2022/01/25 03:44:51;;;;;;;34.03;17.42;;;1.70;80.90;;;;;;4994502;28;20117;-67
2022/01/25 03:47:21;;;;;;;34.65;17.70;;;1.70;80.90;;;;;;4996362;28;20120;-67
2022/01/25 03:49:52;;;;;;;34.90;17.42;;;1.70;81.10;;;;;;4998734;28;20034;-67
2022/01/25 03:52:25;;;;;;;41.05;18.65;;;1.60;81.10;;;;;;4999461;28;20049;-66
2022/01/25 03:54:51;;;;;;;37.10;18.48;;;1.60;81.20;;;;;;4997988;28;20030;-68
2022/01/25 03:57:18;;;;;;;40.67;19.05;;;1.60;81.10;;;;;;4999906;28;20044;-68
2022/01/25 03:59:43;;;;;;;44.30;19.95;;;1.60;81.30;;;;;;4999147;28;20030;-67
2022/01/25 04:02:10;;;;;;;39.08;19.83;;;1.60;81.40;;;;;;4999252;28;20049;-65
2022/01/25 04:04:36;;;;;;;41.15;19.40;;;1.50;81.50;;;;;;4994148;28;20509;-66
2022/01/25 04:07:08;;;;;;;37.35;18.60;;;1.50;81.70;;;;;;4997724;28;20054;-67
2022/01/25 04:09:34;;;;;;;41.90;19.77;;;1.50;81.80;;;;;;4995048;28;20057;-67
2022/01/25 04:12:01;;;;;;;39.47;20.15;;;1.50;81.90;;;;;;4991280;28;20092;-66
2022/01/25 04:14:28;;;;;;;40.97;20.60;;;1.50;82.00;;;;;;4997162;28;20035;-67
2022/01/25 04:17:01;;;;;;;42.90;20.63;;;1.50;82.10;;;;;;4992863;28;20077;-63
2022/01/25 04:25:11;;;;;;;43.38;20.33;;;1.60;82.10;;;;;;4996531;28;20066;-67
2022/01/25 04:27:36;;;;;;;40.65;19.33;;;1.70;82.20;;;;;;4995590;28;20030;-67
2022/01/25 04:30:04;;;;;;;43.47;19.90;;;1.70;82.00;;;;;;4993836;28;20448;-67
2022/01/25 04:32:40;;;;;;;43.33;21.23;;;1.70;81.90;;;;;;4991314;28;20076;-67
2022/01/25 04:35:13;;;;;;;45.67;21.33;;;1.70;82.00;;;;;;4990171;28;20042;-67
2022/01/25 04:49:01;;;;;;;38.65;19.35;;;1.80;81.90;;;;;;4991670;28;20116;-66
2022/01/25 04:54:01;;;;;;;38.97;19.17;;;1.80;81.70;;;;;;4990175;28;20034;-67
2022/01/25 04:56:37;;;;;;;42.03;20.38;;;1.80;81.70;;;;;;4993656;28;20110;-67
2022/01/25 05:01:29;;;;;;;43.50;20.38;;;1.70;81.40;;;;;;4995137;28;20038;-67
2022/01/25 05:04:01;;;;;;;42.80;20.67;;;1.70;81.50;;;;;;4994367;28;20049;-67
2022/01/25 05:06:28;;;;;;;41.70;19.90;;;1.70;81.60;;;;;;4993696;28;20119;-67
2022/01/25 05:08:57;;;;;;;37.20;19.08;;;1.60;81.60;;;;;;4991167;28;20432;-67
2022/01/25 05:11:29;;;;;;;39.38;19.90;;;1.60;81.60;;;;;;4996918;28;20023;-67
2022/01/25 05:14:55;;;;;;;41.17;20.27;;;1.60;81.80;;;;;;4998380;28;20525;-68
2022/01/25 05:16:53;;;;;;;37.97;18.63;;;1.60;81.80;;;;;;4995254;28;20038;-67
2022/01/25 05:19:26;;;;;;;43.55;21.95;;;1.60;81.80;;;;;;4996405;28;20041;-67
2022/01/25 05:24:42;;;;;;;39.55;19.85;;;1.60;81.80;;;;;;4994204;28;20042;-66
2022/01/25 05:27:09;;;;;;;54.00;24.48;;;1.60;81.60;;;;;;5000111;28;20125;-67
2022/01/25 05:29:35;;;;;;;74.55;33.92;;;1.60;81.60;;;;;;4995030;28;20129;-67
2022/01/25 05:32:01;;;;;;;39.58;19.63;;;1.60;81.60;;;;;;4998634;28;20117;-67
2022/01/25 05:34:27;;;;;;;45.95;22.35;;;1.60;81.70;;;;;;4996893;28;20038;-67
2022/01/25 05:36:53;;;;;;;36.15;19.08;;;1.60;81.60;;;;;;4992570;28;20061;-68
2022/01/25 05:39:24;;;;;;;41.03;20.40;;;1.60;81.70;;;;;;4996150;28;20150;-67
2022/01/25 05:42:00;;;;;;;39.40;18.33;;;1.60;81.60;;;;;;4997321;28;20159;-68
2022/01/25 05:44:38;;;;;;;39.72;20.65;;;1.60;81.70;;;;;;4995202;28;20116;-68
2022/01/25 05:47:07;;;;;;;35.83;18.23;;;1.50;81.60;;;;;;4998884;28;20030;-68
2022/01/25 05:49:34;;;;;;;36.47;17.80;;;1.60;81.60;;;;;;4998487;28;20049;-67
2022/01/25 05:52:00;;;;;;;32.08;16.23;;;1.60;81.40;;;;;;4997326;28;20061;-68
2022/01/25 05:54:26;;;;;;;35.00;17.10;;;1.50;81.30;;;;;;4998176;28;20490;-68
2022/01/25 05:56:52;;;;;;;32.25;15.88;;;1.50;81.20;;;;;;4998883;28;20066;-67
2022/01/25 05:59:17;;;;;;;35.85;17.23;;;1.50;81.30;;;;;;4997028;28;20176;-67
2022/01/25 06:01:45;;;;;;;34.25;16.40;;;1.50;81.30;;;;;;5000954;28;20451;-67
2022/01/25 06:04:10;;;;;;;38.15;18.85;;;1.40;81.20;;;;;;4995051;28;20034;-68
2022/01/25 06:06:36;;;;;;;37.20;17.88;;;1.40;81.30;;;;;;4998919;28;20042;-69
2022/01/25 06:09:02;;;;;;;35.55;16.48;;;1.40;82.10;;;;;;4998512;28;20049;-67
2022/01/25 06:11:28;;;;;;;38.75;17.55;;;1.40;81.30;;;;;;4995842;28;20091;-68
2022/01/25 06:13:54;;;;;;;37.33;17.77;;;1.40;81.40;;;;;;4998044;28;20452;-68
2022/01/25 06:16:19;;;;;;;37.95;17.35;;;1.30;81.30;;;;;;4998564;28;20049;-68
2022/01/25 06:18:45;;;;;;;35.95;18.00;;;1.30;81.50;;;;;;4997548;28;20045;-68
2022/01/25 06:21:10;;;;;;;43.58;18.45;;;1.30;81.60;;;;;;4996885;28;20041;-68
2022/01/25 06:23:36;;;;;;;40.30;18.20;;;1.30;81.80;;;;;;4996788;28;20072;-68
2022/01/25 06:26:03;;;;;;;44.65;19.40;;;1.40;82.00;;;;;;4998425;28;20058;-68
2022/01/25 06:28:28;;;;;;;42.75;18.65;;;1.30;82.00;;;;;;4997305;28;20069;-68
2022/01/25 06:30:54;;;;;;;39.67;17.73;;;1.30;82.00;;;;;;4997433;28;20037;-68
2022/01/25 06:33:20;;;;;;;40.90;17.63;;;1.40;82.00;;;;;;4998073;28;20531;-68
2022/01/25 06:35:46;;;;;;;42.55;18.20;;;1.40;82.00;;;;;;4999099;28;20022;-67
2022/01/25 06:38:13;;;;;;;43.60;19.67;;;1.40;82.00;;;;;;4998011;28;20548;-68
2022/01/25 06:40:39;;;;;;;43.20;19.23;;;1.40;82.00;;;;;;4999049;28;20037;-68
2022/01/25 06:43:05;;;;;;;44.13;19.00;;;1.40;81.80;;;;;;4999754;28;20038;-67
2022/01/25 06:45:31;;;;;;;39.95;18.75;;;1.40;81.80;;;;;;4997284;28;20042;-66
2022/01/25 06:47:56;;;;;;;43.25;18.70;;;1.50;81.80;;;;;;4998590;28;20030;-68
2022/01/25 06:50:23;;;;;;;42.72;18.40;;;1.50;81.60;;;;;;4997498;28;20235;-68
2022/01/25 06:52:50;;;;;;;42.03;18.35;;;1.40;81.50;;;;;;4994500;28;20493;-67
2022/01/25 06:55:17;;;;;;;43.90;19.10;;;1.40;81.50;;;;;;4993492;28;20452;-67
2022/01/25 06:57:44;;;;;;;43.95;18.75;;;1.40;81.80;;;;;;4994842;28;20134;-66
2022/01/25 07:00:18;;;;;;;47.88;20.52;;;1.40;81.80;;;;;;4996898;28;20535;-67
2022/01/25 07:02:44;;;;;;;48.42;19.80;;;1.40;82.00;;;;;;4996318;28;20038;-67
2022/01/25 07:05:10;;;;;;;47.67;21.85;;;1.30;81.90;;;;;;4998993;28;20065;-68
2022/01/25 07:07:37;;;;;;;46.25;20.95;;;1.40;82.00;;;;;;4997926;28;20521;-67
2022/01/25 07:10:03;;;;;;;47.58;21.23;;;1.40;82.00;;;;;;4998023;28;20416;-68
2022/01/25 07:12:29;;;;;;;49.60;21.70;;;1.40;82.10;;;;;;4998024;28;20421;-67
2022/01/25 07:14:55;;;;;;;45.67;19.83;;;1.40;82.10;;;;;;5002897;28;20503;-67
2022/01/25 07:17:21;;;;;;;44.95;19.20;;;1.40;82.00;;;;;;5000580;28;20510;-68
2022/01/25 07:19:46;;;;;;;51.17;22.42;;;1.40;81.80;;;;;;5000128;28;20038;-67
2022/01/25 07:22:12;;;;;;;48.35;21.38;;;1.40;81.80;;;;;;5001025;28;20416;-68
2022/01/25 07:24:38;;;;;;;45.28;21.50;;;1.40;81.80;;;;;;5001839;28;20037;-68
2022/01/25 07:27:04;;;;;;;47.80;20.80;;;1.40;82.00;;;;;;5001316;28;20037;-68
2022/01/25 07:29:29;;;;;;;47.30;20.05;;;1.40;82.00;;;;;;5000157;28;20435;-68
2022/01/25 07:31:55;;;;;;;55.03;24.15;;;1.40;82.10;;;;;;5001368;28;20485;-67
2022/01/25 07:34:22;;;;;;;42.92;20.35;;;1.40;82.10;;;;;;5001102;28;20033;-68
2022/01/25 07:36:47;;;;;;;44.92;20.42;;;1.40;82.20;;;;;;5001239;28;20061;-68
2022/01/25 07:39:13;;;;;;;45.65;19.75;;;1.40;82.20;;;;;;5000666;28;20505;-67
2022/01/25 07:41:39;;;;;;;45.10;20.15;;;1.50;82.30;;;;;;5001901;28;20190;-67
2022/01/25 07:44:05;;;;;;;42.58;18.92;;;1.40;82.10;;;;;;5001699;28;20076;-67
2022/01/25 07:46:32;;;;;;;44.50;20.55;;;1.40;82.10;;;;;;5001483;28;20400;-67
2022/01/25 07:48:58;;;;;;;49.15;21.42;;;1.40;82.00;;;;;;5000784;28;20073;-67
2022/01/25 07:51:28;;;;;;;43.38;19.88;;;1.40;82.10;;;;;;5001332;28;20535;-67
2022/01/25 07:53:54;;;;;;;49.90;20.63;;;1.40;82.10;;;;;;5000860;28;20041;-68
2022/01/25 07:56:21;;;;;;;43.95;19.42;;;1.50;82.30;;;;;;5001246;28;20041;-67
2022/01/25 07:58:47;;;;;;;48.03;20.05;;;1.50;82.20;;;;;;4991294;28;20084;-68
2022/01/25 08:01:15;;;;;;;46.47;20.00;;;1.50;82.10;;;;;;4994749;28;20121;-67
2022/01/25 08:03:41;;;;;;;49.38;21.35;;;1.50;82.10;;;;;;4994053;28;20080;-66
2022/01/25 08:06:07;;;;;;;49.03;22.15;;;1.50;82.10;;;;;;5001672;28;20045;-68
2022/01/25 08:08:33;;;;;;;44.35;19.90;;;1.50;82.00;;;;;;5000516;28;20045;-67
2022/01/25 08:11:00;;;;;;;46.65;20.50;;;1.50;82.10;;;;;;4998092;28;20038;-66
2022/01/25 08:13:25;;;;;;;44.28;20.27;;;1.50;82.10;;;;;;4998815;28;20738;-67
2022/01/25 08:15:51;;;;;;;45.10;21.15;;;1.60;82.20;;;;;;4999596;28;20038;-67
2022/01/25 08:18:17;;;;;;;43.88;19.65;;;1.60;82.20;;;;;;5000393;28;20108;-67
2022/01/25 08:20:42;;;;;;;50.45;21.33;;;1.60;82.30;;;;;;4998973;28;20037;-67
2022/01/25 08:23:08;;;;;;;45.15;19.13;;;1.60;82.10;;;;;;5000945;28;20489;-67
2022/01/25 08:25:34;;;;;;;44.22;20.08;;;1.60;82.20;;;;;;4999426;28;20129;-67
2022/01/25 08:28:00;;;;;;;44.30;19.83;;;1.60;82.30;;;;;;5000619;28;20473;-68
2022/01/25 08:30:26;;;;;;;49.20;21.17;;;1.60;82.30;;;;;;4999574;28;20042;-67
2022/01/25 08:32:52;;;;;;;44.75;19.60;;;1.60;82.20;;;;;;5001651;28;20062;-68
2022/01/25 08:35:18;;;;;;;42.25;19.90;;;1.60;82.10;;;;;;4999204;28;20563;-67
2022/01/25 08:37:45;;;;;;;42.80;19.17;;;1.70;82.10;;;;;;5000389;28;20564;-67
2022/01/25 08:40:11;;;;;;;43.03;19.13;;;1.70;82.10;;;;;;5000069;28;20558;-67
2022/01/25 08:42:37;;;;;;;45.63;20.05;;;1.70;82.00;;;;;;5012774;28;20034;-68
2022/01/25 08:45:06;;;;;;;43.05;18.83;;;1.70;81.80;;;;;;5000949;28;20254;-68
2022/01/25 08:47:32;;;;;;;43.40;19.65;;;1.70;81.70;;;;;;4999995;28;20101;-67
2022/01/25 08:49:57;;;;;;;43.95;19.95;;;1.70;81.80;;;;;;4997929;28;20515;-68
2022/01/25 08:52:23;;;;;;;47.25;20.83;;;1.60;82.00;;;;;;4998765;28;20429;-68
2022/01/25 08:54:49;;;;;;;46.97;21.08;;;1.60;82.10;;;;;;4997636;28;20501;-68
2022/01/25 08:57:14;;;;;;;40.58;19.63;;;1.60;82.20;;;;;;4998917;28;20621;-68
2022/01/25 08:59:40;;;;;;;43.72;19.95;;;1.70;82.30;;;;;;4999225;28;20176;-68
2022/01/25 09:02:06;;;;;;;42.05;19.70;;;1.70;82.40;;;;;;4993812;28;20099;-68
2022/01/25 09:04:32;;;;;;;43.95;19.42;;;1.70;82.30;;;;;;5001325;28;20521;-67
2022/01/25 09:06:58;;;;;;;47.95;20.60;;;1.80;82.10;;;;;;4999000;28;20088;-68
2022/01/25 09:09:24;;;;;;;42.33;19.48;;;1.80;82.10;;;;;;4999373;28;20026;-67
2022/01/25 09:11:49;;;;;;;48.13;21.40;;;1.80;82.10;;;;;;4997438;28;20394;-68
2022/01/25 09:14:15;;;;;;;43.17;20.23;;;1.80;82.00;;;;;;4999195;28;20074;-67
2022/01/25 09:16:41;;;;;;;42.70;19.55;;;1.80;82.00;;;;;;4998657;28;20061;-68
2022/01/25 09:19:07;;;;;;;42.35;19.25;;;1.80;81.80;;;;;;4997896;28;20044;-68
2022/01/25 09:21:34;;;;;;;48.88;21.60;;;1.80;81.90;;;;;;4998056;28;20724;-67
2022/01/25 09:24:00;;;;;;;45.63;19.60;;;1.80;82.00;;;;;;5001205;28;20056;-67
2022/01/25 09:26:26;;;;;;;42.53;20.02;;;1.80;82.10;;;;;;5016122;28;20036;-67
2022/01/25 09:28:54;;;;;;;44.03;20.45;;;1.80;82.20;;;;;;4999825;28;20030;-68
2022/01/25 09:31:23;;;;;;;44.60;20.67;;;1.80;82.30;;;;;;4998813;28;20037;-68
2022/01/25 09:33:49;;;;;;;48.95;22.88;;;1.80;82.30;;;;;;4999316;28;20089;-67
2022/01/25 09:36:15;;;;;;;46.90;20.45;;;1.90;82.40;;;;;;5000504;28;20034;-67
2022/01/25 09:38:40;;;;;;;49.00;21.75;;;1.90;82.30;;;;;;4999993;28;20042;-67
2022/01/25 09:41:06;;;;;;;48.22;21.90;;;2.00;82.40;;;;;;5002442;28;20126;-67
2022/01/25 09:43:32;;;;;;;45.40;20.73;;;2.00;82.40;;;;;;5000934;28;20038;-67
2022/01/25 09:45:58;;;;;;;45.30;20.90;;;2.00;82.10;;;;;;5000749;28;20580;-67
2022/01/25 09:48:24;;;;;;;44.40;20.85;;;2.10;82.10;;;;;;4999766;28;20130;-67
2022/01/25 09:50:50;;;;;;;47.97;20.95;;;2.10;82.20;;;;;;4998949;28;20032;-67
2022/01/25 09:53:16;;;;;;;46.28;21.02;;;2.10;82.20;;;;;;4996673;28;20524;-67
2022/01/25 09:55:43;;;;;;;48.72;21.80;;;2.10;82.20;;;;;;4999359;28;20045;-67
2022/01/25 09:58:12;;;;;;;42.25;20.02;;;2.10;82.30;;;;;;4999732;28;20101;-67
2022/01/25 10:00:40;;;;;;;42.67;20.00;;;2.20;82.30;;;;;;4998312;28;20080;-67
2022/01/25 10:03:16;;;;;;;46.72;20.63;;;2.30;82.10;;;;;;4991281;28;21456;-67
2022/01/25 10:05:45;;;;;;;44.75;20.13;;;2.30;82.10;;;;;;4992189;28;20073;-67
2022/01/25 10:08:17;;;;;;;46.38;21.98;;;2.30;82.00;;;;;;4998826;28;20041;-67
2022/01/25 10:10:57;;;;;;;42.25;20.95;;;2.40;82.10;;;;;;4995906;28;20030;-67
2022/01/25 10:13:35;;;;;;;42.47;20.30;;;2.40;82.10;;;;;;4999626;28;20044;-66
2022/01/25 10:16:12;;;;;;;44.45;21.27;;;2.40;82.20;;;;;;5009064;28;20593;-67
2022/01/25 10:18:48;;;;;;;45.25;21.42;;;2.40;82.00;;;;;;4998563;28;20528;-67
2022/01/25 10:21:31;;;;;;;46.20;21.42;;;2.50;82.70;;;;;;4997582;28;20060;-67
2022/01/25 10:23:59;;;;;;;43.40;20.92;;;2.50;81.60;;;;;;4998367;28;20049;-68
2022/01/25 10:26:25;;;;;;;44.78;21.75;;;2.50;81.60;;;;;;4997718;28;20034;-67
2022/01/25 10:28:51;;;;;;;40.20;19.83;;;2.60;81.70;;;;;;4998712;28;20038;-67
2022/01/25 10:31:17;;;;;;;46.83;22.80;;;2.60;81.60;;;;;;5000138;28;20061;-67
2022/01/25 10:33:52;;;;;;;50.80;24.27;;;2.60;81.60;;;;;;4998466;28;20065;-67
2022/01/25 10:36:20;;;;;;;44.08;21.48;;;2.70;81.50;;;;;;4994892;28;20108;-66
2022/01/25 10:38:49;;;;;;;42.00;20.42;;;2.70;81.60;;;;;;4995968;28;20033;-66
2022/01/25 10:41:17;;;;;;;43.90;20.23;;;2.80;81.60;;;;;;4998386;28;20041;-67
2022/01/25 10:43:45;;;;;;;45.17;20.92;;;2.80;81.60;;;;;;4995496;28;20504;-67
2022/01/25 10:46:29;;;;;;;43.20;20.65;;;2.80;81.40;;;;;;5000393;28;20029;-67
2022/01/25 10:49:05;;;;;;;45.35;20.90;;;2.90;81.30;;;;;;4997811;28;20045;-67
2022/01/25 10:51:33;;;;;;;45.55;21.75;;;2.90;81.30;;;;;;5000160;28;20026;-67
2022/01/25 10:54:21;;;;;;;44.42;20.63;;;2.90;81.30;;;;;;4999724;28;20420;-67
2022/01/25 10:56:49;;;;;;;45.75;20.85;;;3.00;81.30;;;;;;4998823;28;20105;-67
2022/01/25 10:59:25;;;;;;;42.88;20.52;;;3.00;81.30;;;;;;4996757;28;20041;-67
2022/01/25 11:01:57;;;;;;;41.60;20.00;;;3.00;81.10;;;;;;4998277;28;20060;-67
2022/01/25 11:04:34;;;;;;;43.15;20.80;;;3.10;81.10;;;;;;4997106;28;20070;-67
2022/01/25 11:07:05;;;;;;;41.22;20.65;;;3.10;81.00;;;;;;4998357;28;20042;-67
2022/01/25 11:09:39;;;;;;;40.47;19.65;;;3.20;80.90;;;;;;4997711;28;20034;-67
2022/01/25 11:12:09;;;;;;;30.00;14.77;;;3.20;80.90;;;;;;4993869;28;20034;-67
2022/01/25 11:14:50;;;;;;;49.05;23.42;;;3.20;80.80;;;;;;4997918;28;20054;-66
2022/01/25 11:17:17;;;;;;;43.63;20.25;;;3.20;80.70;;;;;;4997376;28;20057;-67
2022/01/25 11:19:43;;;;;;;42.38;20.27;;;3.20;80.70;;;;;;5001387;28;20405;-65
2022/01/25 11:22:19;;;;;;;40.08;19.95;;;3.30;80.90;;;;;;4996421;28;20492;-67
2022/01/25 11:24:56;;;;;;;41.85;20.33;;;3.30;80.80;;;;;;4996401;28;20065;-67
2022/01/25 11:27:26;;;;;;;43.05;20.92;;;3.40;80.90;;;;;;4997220;28;20023;-67
2022/01/25 11:29:55;;;;;;;42.05;20.45;;;3.40;80.70;;;;;;4995679;28;20034;-67
2022/01/25 11:32:25;;;;;;;42.97;21.10;;;3.40;80.80;;;;;;4997274;28;20425;-67
2022/01/25 11:34:52;;;;;;;45.78;20.98;;;3.40;80.70;;;;;;4989766;28;20033;-66
2022/01/25 11:37:19;;;;;;;45.78;21.90;;;3.50;80.70;;;;;;4998564;28;20037;-68
2022/01/25 11:39:47;;;;;;;44.47;22.10;;;3.50;80.70;;;;;;4991932;28;20624;-67
2022/01/25 11:42:15;;;;;;;40.00;20.17;;;3.60;80.60;;;;;;4996361;28;20511;-68
2022/01/25 11:44:54;;;;;;;43.38;21.20;;;3.60;80.60;;;;;;4996247;28;20027;-68
2022/01/25 11:47:23;;;;;;;45.58;22.35;;;3.70;80.50;;;;;;4997471;28;20031;-67
2022/01/25 11:49:51;;;;;;;45.67;21.70;;;3.70;80.40;;;;;;4998977;28;20038;-68
2022/01/25 11:52:18;;;;;;;45.75;22.38;;;3.70;80.30;;;;;;4997551;28;20026;-68
2022/01/25 11:54:44;;;;;;;47.03;21.55;;;3.80;80.40;;;;;;4997456;28;20034;-67
2022/01/25 11:57:17;;;;;;;54.22;24.35;;;3.80;80.30;;;;;;4999012;28;20183;-67
2022/01/25 11:59:53;;;;;;;48.40;22.70;;;3.80;80.30;;;;;;5000351;28;20134;-67
2022/01/25 12:02:43;;;;;;;45.88;22.27;;;3.90;80.30;;;;;;5000540;28;20080;-67
2022/01/25 12:05:12;;;;;;;47.35;21.30;;;3.90;79.90;;;;;;5000543;28;20048;-67
2022/01/25 12:07:42;;;;;;;44.90;21.00;;;4.00;80.00;;;;;;5003280;28;20061;-68
2022/01/25 12:10:31;;;;;;;45.03;20.70;;;4.10;79.90;;;;;;5001624;28;20665;-68
2022/01/25 12:13:17;;;;;;;43.92;20.30;;;4.00;79.50;;;;;;5000119;28;20453;-67
2022/01/25 12:15:44;;;;;;;43.88;19.27;;;4.00;79.00;;;;;;4999464;28;20061;-67
2022/01/25 12:18:48;;;;;;;42.83;20.23;;;4.00;79.00;;;;;;5012904;28;20034;-68
2022/01/25 12:21:14;;;;;;;41.88;19.75;;;4.00;78.80;;;;;;5001728;28;20104;-68
2022/01/25 12:23:45;;;;;;;48.20;20.13;;;4.00;79.00;;;;;;5002833;28;20053;-67
2022/01/25 12:26:17;;;;;;;43.85;20.05;;;4.00;79.20;;;;;;5001173;28;20041;-68
2022/01/25 12:28:46;;;;;;;47.03;22.95;;;4.00;79.30;;;;;;5000154;28;20033;-68
2022/01/25 12:31:17;;;;;;;43.50;21.63;;;4.00;79.20;;;;;;5014613;28;20034;-67
2022/01/25 12:33:45;;;;;;;41.38;20.48;;;4.00;79.00;;;;;;4999785;28;20035;-68
2022/01/25 12:36:11;;;;;;;42.00;19.98;;;4.00;79.00;;;;;;4997202;28;20117;-67
2022/01/25 12:38:46;;;;;;;43.03;20.92;;;4.00;79.00;;;;;;4997554;28;20114;-67
2022/01/25 12:41:16;;;;;;;42.50;19.65;;;4.00;79.00;;;;;;4998088;28;20034;-68
2022/01/25 12:43:44;;;;;;;40.88;19.05;;;4.00;79.00;;;;;;5000404;28;20033;-68
2022/01/25 12:46:12;;;;;;;48.20;21.08;;;4.10;79.20;;;;;;5011970;28;20034;-68
2022/01/25 12:48:46;;;;;;;44.10;20.10;;;4.10;79.30;;;;;;4998863;28;20489;-67
2022/01/25 12:51:17;;;;;;;47.15;21.25;;;4.10;79.20;;;;;;4999181;28;20065;-69
2022/01/25 12:53:45;;;;;;;43.17;20.13;;;4.10;79.20;;;;;;4998379;28;20121;-70
2022/01/25 12:56:16;;;;;;;43.88;19.13;;;4.10;79.20;;;;;;4995719;28;20508;-68
2022/01/25 12:58:42;;;;;;;45.88;20.58;;;4.20;79.20;;;;;;4999669;28;20134;-68
2022/01/25 13:01:12;;;;;;;42.53;19.55;;;4.20;79.20;;;;;;4999412;28;20030;-68
2022/01/25 13:03:55;;;;;;;43.90;20.52;;;4.20;79.00;;;;;;4999938;28;20493;-68
2022/01/25 13:06:27;;;;;;;43.53;19.90;;;4.20;78.80;;;;;;5000163;28;20091;-69
2022/01/25 13:11:48;;;;;;;46.03;20.30;;;4.20;78.90;;;;;;4979861;28;20042;-68
2022/01/25 13:14:34;;;;;;;44.90;20.17;;;4.20;78.90;;;;;;5000724;28;20052;-67
2022/01/25 13:17:13;;;;;;;46.28;21.13;;;4.20;78.90;;;;;;4996953;28;20038;-69
2022/01/25 13:19:46;;;;;;;43.25;20.88;;;4.20;78.80;;;;;;4997449;28;20520;-68
2022/01/25 13:22:17;;;;;;;41.30;20.38;;;4.20;79.10;;;;;;4995151;28;20393;-68
2022/01/25 13:27:52;;;;;;;50.60;21.15;;;4.30;79.00;;;;;;5001771;28;20560;-68
2022/01/25 13:33:06;;;;;;;43.95;19.88;;;4.30;79.80;;;;;;4996749;28;20060;-68
2022/01/25 13:35:36;;;;;;;48.88;21.85;;;4.40;79.00;;;;;;4992145;28;20030;-67
2022/01/25 13:38:20;;;;;;;47.67;21.58;;;4.40;79.00;;;;;;4999182;28;20208;-68
2022/01/25 13:41:09;;;;;;;40.50;18.88;;;4.40;78.80;;;;;;4992079;28;20037;-68
2022/01/25 13:46:15;;;;;;;44.83;21.08;;;4.50;78.90;;;;;;4996635;28;20041;-68
2022/01/25 13:48:42;;;;;;;45.30;20.75;;;4.50;79.00;;;;;;5000197;28;20034;-68
2022/01/25 13:51:11;;;;;;;41.45;19.85;;;4.50;79.00;;;;;;4996798;28;20037;-68
2022/01/25 13:53:38;;;;;;;48.88;21.52;;;4.60;79.00;;;;;;5000142;28;20057;-68
2022/01/25 13:56:07;;;;;;;41.67;20.17;;;4.60;78.80;;;;;;4998898;28;20088;-68
2022/01/25 13:58:40;;;;;;;46.78;21.05;;;4.60;78.80;;;;;;4998173;28;20468;-68
2022/01/25 14:01:08;;;;;;;44.45;21.38;;;4.60;78.70;;;;;;4999612;28;20053;-68
2022/01/25 14:03:53;;;;;;;41.15;20.25;;;4.60;78.70;;;;;;4998979;28;20057;-68
2022/01/25 14:06:28;;;;;;;45.70;21.52;;;4.70;78.60;;;;;;4999870;28;20401;-68
2022/01/25 14:09:14;;;;;;;44.28;21.17;;;4.70;78.60;;;;;;4998552;28;20088;-68
2022/01/25 14:21:40;;;;;;;46.72;21.98;;;4.80;78.20;;;;;;4998880;28;20455;-68
2022/01/25 14:25:38;;;;;;;44.17;22.25;;;4.70;77.50;;;;;;5003107;28;20046;-68
2022/01/25 14:28:17;;;;;;;46.67;23.10;;;4.70;77.60;;;;;;4999921;28;20065;-68
2022/01/25 14:30:46;;;;;;;51.22;24.15;;;4.60;77.70;;;;;;4993719;28;20037;-68
2022/01/25 14:33:14;;;;;;;48.50;23.35;;;4.50;77.80;;;;;;4994930;28;20512;-68
2022/01/25 14:35:45;;;;;;;61.38;24.83;;;4.50;78.00;;;;;;4992776;28;20241;-68
2022/01/25 14:38:21;;;;;;;46.03;22.98;;;4.40;78.00;;;;;;4990802;28;20041;-68
2022/01/25 14:41:03;;;;;;;49.22;23.98;;;4.40;78.10;;;;;;4985696;28;20454;-69
2022/01/25 14:43:33;;;;;;;53.45;23.95;;;4.30;78.50;;;;;;4991512;28;20040;-68
2022/01/25 14:46:00;;;;;;;52.72;24.02;;;4.30;78.40;;;;;;4989882;28;20087;-68
2022/01/25 14:48:26;;;;;;;52.80;23.95;;;4.30;78.50;;;;;;4997819;28;20133;-68
2022/01/25 14:50:59;;;;;;;49.83;23.27;;;4.20;78.50;;;;;;4998556;28;20121;-68